Wetterdaten: Woche 01.10.18 - 07.10.18 (KW40)
Datum Zeit Temp. A. Feuchte A. Luftdruck Regen Wind Richtung Taupunkt Windchill Windben
01.10.2018 00:00 6,0 C 77 % 1013,4 hPa 0,0 l/m 0,0 km/h N 2,3 C 6,0 C 0,0 km/h
01.10.2018 01:00 5,2 C 79 % 1013,0 hPa 0,0 l/m 0,0 km/h N 1,9 C 5,2 C 0,0 km/h
01.10.2018 02:00 4,6 C 80 % 1012,5 hPa 0,0 l/m 0,0 km/h N 1,5 C 4,6 C 0,0 km/h
01.10.2018 03:00 4,3 C 81 % 1012,0 hPa 0,0 l/m 0,0 km/h N 1,3 C 4,3 C 0,0 km/h
01.10.2018 04:00 3,9 C 81 % 1011,3 hPa 0,0 l/m 0,0 km/h N 0,9 C 3,9 C 0,0 km/h
01.10.2018 05:00 3,6 C 81 % 1011,0 hPa 0,0 l/m 0,0 km/h N 0,7 C 3,6 C 0,0 km/h
01.10.2018 06:00 3,4 C 81 % 1010,9 hPa 0,0 l/m 0,0 km/h N 0,5 C 3,4 C 0,0 km/h
01.10.2018 07:00 3,2 C 81 % 1010,9 hPa 0,0 l/m 0,0 km/h N 0,3 C 3,2 C 0,0 km/h
01.10.2018 08:00 4,8 C 81 % 1011,0 hPa 0,0 l/m 0,0 km/h N 1,8 C 4,8 C 0,8 km/h
01.10.2018 09:00 6,7 C 81 % 1011,1 hPa 0,0 l/m 0,2 km/h N 3,6 C 6,7 C 3,2 km/h
01.10.2018 10:00 8,6 C 81 % 1011,2 hPa 0,0 l/m 0,2 km/h N 5,4 C 8,6 C 2,8 km/h
01.10.2018 11:00 10,0 C 77 % 1011,1 hPa 0,0 l/m 0,2 km/h N 6,2 C 10,0 C 3,2 km/h
01.10.2018 12:00 11,5 C 71 % 1011,0 hPa 0,0 l/m 1,4 km/h N 6,4 C 11,5 C 6,8 km/h
01.10.2018 13:00 13,9 C 66 % 1010,6 hPa 0,0 l/m 1,3 km/h N 7,6 C 13,9 C 8,9 km/h
01.10.2018 14:00 15,2 C 65 % 1010,4 hPa 0,0 l/m 4,9 km/h N 8,6 C 15,2 C 16,5 km/h
01.10.2018 15:00 14,4 C 68 % 1010,9 hPa 0,0 l/m 6,4 km/h N 8,6 C 14,2 C 19,3 km/h
01.10.2018 16:00 12,8 C 74 % 1011,4 hPa 0,0 l/m 6,6 km/h N 8,2 C 12,5 C 20,5 km/h
01.10.2018 17:00 11,6 C 80 % 1012,0 hPa 0,3 l/m 5,9 km/h N 8,2 C 11,4 C 19,3 km/h
01.10.2018 18:00 11,6 C 80 % 1012,5 hPa 0,0 l/m 7,3 km/h N 8,3 C 11,0 C 20,5 km/h
01.10.2018 19:00 11,7 C 80 % 1013,4 hPa 0,0 l/m 5,5 km/h N 8,3 C 11,3 C 19,3 km/h
01.10.2018 20:00 11,9 C 79 % 1014,0 hPa 0,0 l/m 6,5 km/h N 8,2 C 11,6 C 20,5 km/h
01.10.2018 21:00 11,6 C 78 % 1014,4 hPa 0,0 l/m 6,8 km/h N 7,9 C 11,0 C 21,7 km/h
01.10.2018 22:00 11,4 C 77 % 1014,8 hPa 0,0 l/m 9,1 km/h N 7,4 C 9,6 C 24,5 km/h
01.10.2018 23:00 10,9 C 76 % 1015,3 hPa 0,0 l/m 7,9 km/h N 6,8 C 9,9 C 19,3 km/h
02.10.2018 00:00 10,8 C 75 % 1015,6 hPa 0,0 l/m 9,6 km/h N 6,5 C 8,8 C 23,7 km/h
02.10.2018 01:00 10,6 C 77 % 1015,7 hPa 0,0 l/m 6,3 km/h N 6,7 C 10,2 C 18,9 km/h
02.10.2018 02:00 10,3 C 77 % 1016,3 hPa 0,0 l/m 5,5 km/h N 6,5 C 10,3 C 20,1 km/h
02.10.2018 03:00 10,1 C 76 % 1016,5 hPa 0,0 l/m 5,9 km/h N 6,1 C 9,9 C 20,5 km/h
02.10.2018 04:00 9,5 C 78 % 1017,1 hPa 0,0 l/m 1,9 km/h N 5,9 C 9,5 C 11,7 km/h
02.10.2018 05:00 9,2 C 79 % 1017,1 hPa 0,0 l/m 2,0 km/h N 5,8 C 9,2 C 11,3 km/h
02.10.2018 06:00 9,1 C 79 % 1017,5 hPa 0,0 l/m 4,7 km/h N 5,6 C 9,1 C 17,3 km/h
02.10.2018 07:00 8,8 C 80 % 1018,1 hPa 0,3 l/m 3,5 km/h N 5,5 C 8,8 C 16,9 km/h
02.10.2018 08:00 8,7 C 81 % 1019,1 hPa 0,0 l/m 3,9 km/h N 5,6 C 8,7 C 17,3 km/h
02.10.2018 09:00 8,9 C 80 % 1019,9 hPa 0,0 l/m 6,5 km/h N 5,6 C 8,7 C 19,3 km/h
02.10.2018 10:00 9,7 C 75 % 1020,4 hPa 0,0 l/m 6,8 km/h N 5,4 C 8,7 C 20,5 km/h
02.10.2018 11:00 9,9 C 74 % 1020,7 hPa 0,3 l/m 4,8 km/h N 5,5 C 9,8 C 17,7 km/h
02.10.2018 12:00 8,2 C 78 % 1021,1 hPa 1,8 l/m 6,1 km/h N 4,6 C 7,3 C 23,3 km/h
02.10.2018 13:00 10,3 C 73 % 1020,4 hPa 0,0 l/m 9,4 km/h N 5,7 C 8,3 C 25,8 km/h
02.10.2018 14:00 10,6 C 67 % 1020,0 hPa 0,0 l/m 7,6 km/h N 4,7 C 9,8 C 24,1 km/h
02.10.2018 15:00 11,3 C 60 % 1019,8 hPa 0,0 l/m 8,5 km/h N 3,8 C 9,9 C 25,8 km/h
02.10.2018 16:00 11,7 C 56 % 1019,6 hPa 0,0 l/m 5,9 km/h N 3,1 C 11,5 C 21,7 km/h
02.10.2018 17:00 11,5 C 56 % 1019,4 hPa 0,0 l/m 6,6 km/h N 3,0 C 11,1 C 22,1 km/h
02.10.2018 18:00 10,9 C 59 % 1019,5 hPa 0,0 l/m 2,5 km/h N 3,2 C 10,9 C 15,3 km/h
02.10.2018 19:00 10,1 C 63 % 1019,7 hPa 0,0 l/m 0,3 km/h N 3,3 C 10,1 C 3,2 km/h
02.10.2018 20:00 9,0 C 67 % 1019,8 hPa 0,0 l/m 0,0 km/h N 3,2 C 9,0 C 0,0 km/h
02.10.2018 21:00 7,4 C 74 % 1019,9 hPa 0,0 l/m 0,0 km/h N 3,1 C 7,4 C 0,0 km/h
02.10.2018 22:00 7,4 C 78 % 1019,8 hPa 0,0 l/m 0,1 km/h N 3,8 C 7,4 C 2,4 km/h
02.10.2018 23:00 11,2 C 66 % 1019,7 hPa 0,0 l/m 5,9 km/h N 5,0 C 10,8 C 25,8 km/h
03.10.2018 00:00 11,9 C 62 % 1018,8 hPa 0,0 l/m 4,2 km/h N 4,9 C 11,9 C 24,5 km/h
03.10.2018 01:00 12,0 C 63 % 1018,6 hPa 0,0 l/m 4,0 km/h N 5,1 C 12,0 C 20,5 km/h
03.10.2018 02:00 12,1 C 65 % 1019,0 hPa 0,0 l/m 3,7 km/h N 5,7 C 12,1 C 23,7 km/h
03.10.2018 03:00 12,0 C 68 % 1019,1 hPa 0,0 l/m 3,4 km/h N 6,2 C 12,0 C 21,3 km/h
03.10.2018 04:00 11,9 C 71 % 1019,2 hPa 0,0 l/m 3,3 km/h N 6,7 C 11,9 C 18,5 km/h
03.10.2018 05:00 11,8 C 73 % 1019,3 hPa 0,0 l/m 3,7 km/h N 7,0 C 11,8 C 20,9 km/h
03.10.2018 06:00 12,1 C 73 % 1019,7 hPa 0,0 l/m 5,5 km/h N 7,3 C 11,8 C 24,1 km/h
03.10.2018 07:00 12,0 C 73 % 1019,5 hPa 0,0 l/m 1,8 km/h N 7,3 C 12,0 C 18,5 km/h
03.10.2018 08:00 12,6 C 72 % 1019,6 hPa 0,0 l/m 5,8 km/h N 7,7 C 12,4 C 24,1 km/h
03.10.2018 09:00 13,2 C 71 % 1020,1 hPa 0,0 l/m 6,3 km/h N 8,0 C 13,0 C 26,5 km/h
03.10.2018 10:00 13,6 C 71 % 1019,9 hPa 0,0 l/m 4,7 km/h N 8,4 C 13,6 C 25,0 km/h
03.10.2018 11:00 13,8 C 71 % 1020,0 hPa 0,0 l/m 7,8 km/h N 8,6 C 13,0 C 26,5 km/h
03.10.2018 12:00 14,9 C 67 % 1019,9 hPa 0,0 l/m 5,2 km/h N 8,9 C 14,9 C 24,9 km/h
03.10.2018 13:00 15,9 C 64 % 1019,7 hPa 0,0 l/m 7,8 km/h N 9,2 C 15,2 C 29,4 km/h
03.10.2018 14:00 16,4 C 61 % 1019,5 hPa 0,0 l/m 8,8 km/h N 8,9 C 15,2 C 30,6 km/h
03.10.2018 15:00 16,2 C 61 % 1019,6 hPa 0,0 l/m 7,1 km/h N 8,6 C 15,7 C 28,2 km/h
03.10.2018 16:00 16,4 C 59 % 1019,6 hPa 0,0 l/m 7,8 km/h N 8,3 C 15,6 C 24,1 km/h
03.10.2018 17:00 16,4 C 57 % 1020,3 hPa 0,0 l/m 6,1 km/h N 7,8 C 15,8 C 23,3 km/h
03.10.2018 18:00 15,6 C 59 % 1021,1 hPa 0,0 l/m 1,9 km/h N 7,5 C 15,6 C 12,9 km/h
03.10.2018 19:00 14,9 C 60 % 1022,2 hPa 0,0 l/m 1,2 km/h N 7,2 C 14,9 C 10,9 km/h
03.10.2018 20:00 14,8 C 59 % 1023,0 hPa 0,0 l/m 1,8 km/h N 6,7 C 14,8 C 12,5 km/h
03.10.2018 21:00 14,4 C 69 % 1023,7 hPa 0,0 l/m 3,9 km/h N 8,6 C 14,4 C 18,5 km/h
03.10.2018 22:00 13,6 C 72 % 1024,5 hPa 0,0 l/m 2,6 km/h N 8,5 C 13,6 C 14,9 km/h
03.10.2018 23:00 13,3 C 73 % 1025,2 hPa 0,0 l/m 1,7 km/h N 8,5 C 13,3 C 10,5 km/h
04.10.2018 00:00 13,2 C 72 % 1025,6 hPa 0,0 l/m 3,9 km/h N 8,3 C 13,2 C 16,1 km/h
04.10.2018 01:00 13,0 C 71 % 1025,9 hPa 0,0 l/m 3,4 km/h N 7,8 C 13,0 C 13,3 km/h
04.10.2018 02:00 12,0 C 73 % 1026,2 hPa 0,0 l/m 0,2 km/h N 7,3 C 12,0 C 4,8 km/h
04.10.2018 03:00 11,0 C 75 % 1026,2 hPa 0,0 l/m 0,2 km/h N 6,7 C 11,0 C 4,8 km/h
04.10.2018 04:00 9,7 C 76 % 1026,3 hPa 0,0 l/m 0,0 km/h N 5,6 C 9,7 C 0,4 km/h
04.10.2018 05:00 8,4 C 78 % 1026,7 hPa 0,0 l/m 0,0 km/h N 4,9 C 8,4 C 0,0 km/h
04.10.2018 06:00 7,4 C 80 % 1027,2 hPa 0,0 l/m 0,0 km/h N 4,1 C 7,4 C 0,0 km/h
04.10.2018 07:00 7,3 C 81 % 1027,7 hPa 0,0 l/m 0,0 km/h N 4,3 C 7,3 C 0,0 km/h
04.10.2018 08:00 9,0 C 80 % 1028,0 hPa 0,0 l/m 0,2 km/h N 5,7 C 9,0 C 2,4 km/h
04.10.2018 09:00 11,8 C 76 % 1028,3 hPa 0,0 l/m 3,9 km/h N 7,6 C 11,8 C 13,7 km/h
04.10.2018 10:00 13,8 C 63 % 1028,5 hPa 0,0 l/m 2,2 km/h N 6,8 C 13,8 C 9,7 km/h
04.10.2018 11:00 14,8 C 56 % 1028,4 hPa 0,0 l/m 3,1 km/h N 6,2 C 14,8 C 12,1 km/h
04.10.2018 12:00 15,8 C 56 % 1028,3 hPa 0,0 l/m 3,9 km/h N 7,1 C 15,8 C 16,5 km/h
04.10.2018 13:00 16,2 C 56 % 1027,7 hPa 0,0 l/m 3,5 km/h N 7,3 C 16,2 C 15,7 km/h
04.10.2018 14:00 16,5 C 55 % 1027,3 hPa 0,0 l/m 4,4 km/h N 7,5 C 16,5 C 16,5 km/h
04.10.2018 15:00 16,8 C 55 % 1026,8 hPa 0,0 l/m 1,6 km/h N 7,6 C 16,8 C 10,5 km/h
04.10.2018 16:00 16,8 C 56 % 1026,7 hPa 0,0 l/m 0,5 km/h N 7,8 C 16,8 C 6,0 km/h
04.10.2018 17:00 16,1 C 56 % 1026,8 hPa 0,0 l/m 0,1 km/h N 7,2 C 16,1 C 1,6 km/h
04.10.2018 18:00 15,0 C 58 % 1026,9 hPa 0,0 l/m 0,0 km/h N 6,7 C 15,0 C 0,8 km/h
04.10.2018 19:00 12,4 C 66 % 1027,3 hPa 0,0 l/m 0,0 km/h N 6,1 C 12,4 C 0,0 km/h
04.10.2018 20:00 10,0 C 74 % 1027,5 hPa 0,0 l/m 0,0 km/h N 5,6 C 10,0 C 0,0 km/h
04.10.2018 21:00 8,7 C 78 % 1027,7 hPa 0,0 l/m 0,0 km/h N 5,0 C 8,7 C 0,0 km/h
04.10.2018 22:00 7,6 C 79 % 1027,8 hPa 0,0 l/m 0,0 km/h N 4,2 C 7,6 C 0,0 km/h
04.10.2018 23:00 6,8 C 81 % 1027,6 hPa 0,0 l/m 0,0 km/h N 3,7 C 6,8 C 0,0 km/h
05.10.2018 00:00 6,2 C 81 % 1027,5 hPa 0,0 l/m 0,0 km/h N 3,2 C 6,2 C 0,4 km/h
05.10.2018 01:00 5,8 C 81 % 1027,3 hPa 0,0 l/m 0,0 km/h N 2,7 C 5,8 C 0,0 km/h
05.10.2018 02:00 5,4 C 81 % 1027,0 hPa 0,0 l/m 0,0 km/h N 2,4 C 5,4 C 0,0 km/h
05.10.2018 03:00 4,8 C 81 % 1026,7 hPa 0,0 l/m 0,0 km/h N 1,8 C 4,8 C 0,0 km/h
05.10.2018 04:00 4,3 C 81 % 1026,3 hPa 0,0 l/m 0,0 km/h N 1,4 C 4,3 C 0,0 km/h
05.10.2018 05:00 4,0 C 81 % 1026,1 hPa 0,0 l/m 0,0 km/h N 1,0 C 4,0 C 0,0 km/h
05.10.2018 06:00 3,7 C 81 % 1025,9 hPa 0,0 l/m 0,0 km/h N 0,7 C 3,7 C 0,0 km/h
05.10.2018 07:00 3,3 C 81 % 1026,3 hPa 0,0 l/m 0,0 km/h N 0,4 C 3,3 C 0,0 km/h
05.10.2018 08:00 4,6 C 81 % 1026,6 hPa 0,0 l/m 0,0 km/h N 1,7 C 4,6 C 0,0 km/h
05.10.2018 09:00 7,5 C 82 % 1026,4 hPa 0,0 l/m 0,0 km/h N 4,5 C 7,5 C 0,0 km/h
05.10.2018 10:00 10,6 C 82 % 1025,8 hPa 0,0 l/m 0,0 km/h N 7,6 C 10,6 C 2,4 km/h
05.10.2018 11:00 15,9 C 73 % 1024,7 hPa 0,0 l/m 0,6 km/h N 10,9 C 15,9 C 7,6 km/h
05.10.2018 12:00 20,0 C 51 % 1024,0 hPa 0,0 l/m 4,0 km/h N 9,5 C 20,0 C 10,9 km/h
05.10.2018 13:00 20,7 C 45 % 1023,6 hPa 0,0 l/m 4,6 km/h N 8,4 C 20,7 C 15,7 km/h
05.10.2018 14:00 20,5 C 44 % 1023,1 hPa 0,0 l/m 4,5 km/h N 7,7 C 20,5 C 13,3 km/h
05.10.2018 15:00 20,3 C 45 % 1022,7 hPa 0,0 l/m 4,5 km/h N 7,8 C 20,3 C 13,3 km/h
05.10.2018 16:00 19,7 C 45 % 1022,3 hPa 0,0 l/m 3,5 km/h N 7,3 C 19,7 C 10,1 km/h
05.10.2018 17:00 18,8 C 46 % 1022,2 hPa 0,0 l/m 2,8 km/h N 6,8 C 18,8 C 10,9 km/h
05.10.2018 18:00 17,5 C 49 % 1022,1 hPa 0,0 l/m 3,0 km/h N 6,7 C 17,5 C 9,3 km/h
05.10.2018 19:00 16,1 C 54 % 1021,9 hPa 0,0 l/m 1,7 km/h N 6,9 C 16,1 C 6,0 km/h
05.10.2018 20:00 14,8 C 60 % 1021,7 hPa 0,0 l/m 0,8 km/h N 7,1 C 14,8 C 6,0 km/h
05.10.2018 21:00 14,4 C 61 % 1021,2 hPa 0,0 l/m 2,3 km/h N 6,8 C 14,4 C 7,2 km/h
05.10.2018 22:00 14,7 C 59 % 1020,6 hPa 0,0 l/m 3,3 km/h N 6,8 C 14,7 C 8,9 km/h
05.10.2018 23:00 14,5 C 58 % 1020,1 hPa 0,0 l/m 2,5 km/h N 6,4 C 14,5 C 8,4 km/h
06.10.2018 00:00 14,1 C 59 % 1019,6 hPa 0,0 l/m 1,5 km/h N 6,2 C 14,1 C 7,6 km/h
06.10.2018 01:00 13,6 C 60 % 1019,2 hPa 0,0 l/m 0,4 km/h N 6,0 C 13,6 C 5,2 km/h
06.10.2018 02:00 13,0 C 62 % 1018,8 hPa 0,0 l/m 0,2 km/h N 5,9 C 13,0 C 4,0 km/h
06.10.2018 03:00 12,2 C 65 % 1018,2 hPa 0,0 l/m 0,0 km/h N 5,7 C 12,2 C 0,8 km/h
06.10.2018 04:00 10,2 C 70 % 1017,8 hPa 0,0 l/m 0,0 km/h N 4,9 C 10,2 C 0,0 km/h
06.10.2018 05:00 9,4 C 76 % 1017,6 hPa 0,0 l/m 0,0 km/h N 5,3 C 9,4 C 0,0 km/h
06.10.2018 06:00 9,3 C 77 % 1017,2 hPa 0,0 l/m 0,0 km/h N 5,5 C 9,3 C 0,0 km/h
06.10.2018 07:00 9,8 C 78 % 1017,2 hPa 0,0 l/m 0,0 km/h N 6,2 C 9,8 C 0,0 km/h
06.10.2018 08:00 10,3 C 78 % 1017,3 hPa 0,0 l/m 0,0 km/h N 6,6 C 10,3 C 0,0 km/h
06.10.2018 09:00 11,8 C 76 % 1017,1 hPa 0,0 l/m 0,0 km/h N 7,8 C 11,8 C 0,0 km/h
06.10.2018 10:00 14,8 C 71 % 1016,7 hPa 0,0 l/m 0,9 km/h N 9,6 C 14,8 C 6,0 km/h
06.10.2018 11:00 19,9 C 58 % 1015,9 hPa 0,0 l/m 1,9 km/h N 11,3 C 19,9 C 8,4 km/h
06.10.2018 12:00 23,1 C 48 % 1015,0 hPa 0,0 l/m 4,3 km/h N 11,3 C 23,1 C 12,5 km/h
06.10.2018 13:00 23,8 C 47 % 1013,9 hPa 0,0 l/m 5,2 km/h N 11,8 C 23,8 C 14,1 km/h
06.10.2018 14:00 24,0 C 48 % 1013,0 hPa 0,0 l/m 4,8 km/h N 12,3 C 24,0 C 15,7 km/h
06.10.2018 15:00 23,6 C 50 % 1012,6 hPa 0,0 l/m 4,6 km/h N 12,5 C 23,6 C 14,9 km/h
06.10.2018 16:00 22,5 C 53 % 1012,3 hPa 0,0 l/m 4,7 km/h N 12,3 C 22,5 C 16,5 km/h
06.10.2018 17:00 21,8 C 56 % 1012,2 hPa 0,0 l/m 3,4 km/h N 12,5 C 21,8 C 17,3 km/h
06.10.2018 18:00 20,7 C 61 % 1011,7 hPa 0,0 l/m 1,9 km/h N 12,8 C 20,7 C 11,3 km/h
06.10.2018 19:00 19,8 C 65 % 1011,4 hPa 0,0 l/m 2,7 km/h N 12,9 C 19,8 C 12,5 km/h
06.10.2018 20:00 19,1 C 68 % 1011,6 hPa 0,0 l/m 3,6 km/h N 12,9 C 19,1 C 10,1 km/h
06.10.2018 21:00 18,2 C 70 % 1011,9 hPa 0,0 l/m 0,8 km/h N 12,7 C 18,2 C 7,6 km/h
06.10.2018 22:00 17,8 C 73 % 1011,6 hPa 0,0 l/m 1,5 km/h N 12,8 C 17,8 C 11,3 km/h
06.10.2018 23:00 17,7 C 73 % 1011,2 hPa 0,0 l/m 0,6 km/h N 12,8 C 17,7 C 7,3 km/h
07.10.2018 00:00 17,8 C 74 % 1010,5 hPa 0,0 l/m 0,8 km/h N 13,1 C 17,8 C 5,6 km/h
07.10.2018 01:00 17,3 C 76 % 1010,3 hPa 0,0 l/m 0,0 km/h N 12,9 C 17,3 C 0,8 km/h
07.10.2018 02:00 16,7 C 78 % 1010,0 hPa 0,0 l/m 0,0 km/h N 12,7 C 16,7 C 0,0 km/h
07.10.2018 03:00 17,1 C 78 % 1009,8 hPa 0,0 l/m 0,0 km/h N 13,2 C 17,1 C 0,0 km/h
07.10.2018 04:00 17,0 C 78 % 1009,8 hPa 0,0 l/m 0,0 km/h N 13,0 C 17,0 C 0,0 km/h
07.10.2018 05:00 16,6 C 78 % 1009,9 hPa 0,0 l/m 0,0 km/h N 12,7 C 16,6 C 0,0 km/h
07.10.2018 06:00 15,5 C 79 % 1010,2 hPa 0,0 l/m 0,0 km/h N 11,9 C 15,5 C 0,0 km/h
07.10.2018 07:00 14,8 C 80 % 1010,9 hPa 0,0 l/m 0,0 km/h N 11,3 C 14,8 C 0,0 km/h
07.10.2018 08:00 14,4 C 80 % 1011,7 hPa 0,0 l/m 0,0 km/h N 10,9 C 14,4 C 0,0 km/h
07.10.2018 09:00 14,6 C 80 % 1012,3 hPa 0,0 l/m 0,0 km/h N 11,1 C 14,6 C 0,0 km/h
07.10.2018 10:00 15,0 C 80 % 1012,8 hPa 0,0 l/m 0,0 km/h N 11,6 C 15,0 C 0,0 km/h
07.10.2018 11:00 16,8 C 79 % 1012,9 hPa 0,0 l/m 0,0 km/h N 13,1 C 16,8 C 0,0 km/h
07.10.2018 12:00 19,6 C 76 % 1012,8 hPa 0,0 l/m 0,0 km/h N 15,2 C 19,6 C 0,0 km/h
07.10.2018 13:00 21,5 C 67 % 1012,6 hPa 0,0 l/m 0,0 km/h N 15,0 C 21,5 C 0,0 km/h
07.10.2018 14:00 21,3 C 63 % 1012,6 hPa 0,0 l/m 0,9 km/h N 13,9 C 21,3 C 4,0 km/h
07.10.2018 15:00 20,7 C 64 % 1012,8 hPa 0,0 l/m 3,5 km/h N 13,7 C 20,7 C 10,1 km/h
07.10.2018 16:00 20,1 C 68 % 1013,2 hPa 0,0 l/m 2,3 km/h N 14,0 C 20,1 C 10,1 km/h
07.10.2018 17:00 19,2 C 72 % 1013,7 hPa 0,0 l/m 1,2 km/h N 13,9 C 19,2 C 6,4 km/h
07.10.2018 18:00 18,5 C 74 % 1014,3 hPa 0,0 l/m 0,2 km/h N 13,7 C 18,5 C 3,6 km/h
07.10.2018 19:00 17,8 C 76 % 1015,2 hPa 0,0 l/m 0,4 km/h N 13,4 C 17,8 C 2,0 km/h
07.10.2018 20:00 17,0 C 78 % 1015,7 hPa 0,0 l/m 0,0 km/h N 13,0 C 17,0 C 0,4 km/h
07.10.2018 21:00 17,0 C 78 % 1016,3 hPa 0,0 l/m 1,2 km/h N 13,1 C 17,0 C 7,6 km/h
07.10.2018 22:00 17,5 C 77 % 1016,8 hPa 0,0 l/m 1,6 km/h N 13,3 C 17,5 C 7,2 km/h
07.10.2018 23:00 17,5 C 76 % 1017,1 hPa 0,0 l/m 2,0 km/h N 13,3 C 17,5 C 8,4 km/h
Min-Datum _ 01.10.18 05.10.18 07.10.18 - 01.10.18 - 01.10.18 01.10.18 01.10.18
_ Min-Zeit 07:15 14:30 03:45 - 00:00 - 07:15 07:15 00:00
Minimum _ 3,1 C 43 % 1009,6 hPa - 0,0 km/h - 0,2 C 3,1 C 0,0 km/h
Max-Datum _ 06.10.18 05.10.18 04.10.18 02.10.18 01.10.18 - 07.10.18 06.10.18 03.10.18
_ Max-Zeit 14:30 08:45 09:30 12:00 22:45 - 13:30 14:30 09:30
Maximum _ 24,1 C 82 % 1028,5 hPa 1,8 l/m 11,7 km/h
N
- 15,6 C 24,1 C 37,0 km/h
N
Durchschnitt _ 13,0 C 70 % 1018,7 hPa #2,6 l/m 2,5 km/h N 7,4 C 12,8 C 9,9 km/h